Cromwell, Alabama
Current Conditions -  °F | °C
As of 5:55 PM on Wednesday 26 Nov 2014 (Local Time) from KDYA Reporting Station
Clear Clear  
Wind Chill: 55°   Ceiling: Unl
Heat Index: 55°   Visibility: 10mi
Dew Point: 30°   Wind: 6mph
Humidity: 38%   Direction: 170°S
Pressure: 30.09"   Gusts: NA
Location:  32.23°N, 88.27°W
Report Text: KDYA 262355Z AUTO 17005KT 10SM CLR 13/M01 A3009 RMK AO2 T01301012 10172 20130
Loading
Personal Weather Stations






























Interactive Weather Map New forecast layout! Learn more

10-Day Weather Forecast

Advertisements
Track Severe Weather on mobile